Time;durP1;ratioP1;P1;durP2;ratioP2;P2;SDS_P1;SDS_P2;PMS_P1;PMS_P2;Temp;Humidity;BMP_temperature;BMP_pressure;BME280_temperature;BME280_humidity;BME280_pressure;Samples;Min_cycle;Max_cycle;Signal;HPM_P1;HPM_P2
2024/01/05 00:01:35;;;;;;;8.80;3.63;;;8.00;99.90;;;;;;5043668;28;20024;-70
2024/01/05 00:04:01;;;;;;;6.25;3.05;;;8.10;99.90;;;;;;5027896;28;20302;-71
2024/01/05 00:06:27;;;;;;;9.07;3.88;;;8.10;99.90;;;;;;5045009;28;20025;-70
2024/01/05 00:08:53;;;;;;;11.57;7.55;;;8.00;99.90;;;;;;5045482;28;20096;-70
2024/01/05 00:11:19;;;;;;;10.73;4.45;;;8.00;99.90;;;;;;5045079;28;20028;-70
2024/01/05 00:13:46;;;;;;;10.48;5.22;;;7.80;99.90;;;;;;5043800;28;20049;-70
2024/01/05 00:16:21;;;;;;;12.23;4.38;;;7.70;99.90;;;;;;5027678;28;20222;-70
2024/01/05 00:18:47;;;;;;;13.38;3.78;;;7.60;99.90;;;;;;5007958;28;20219;-70
2024/01/05 00:21:24;;;;;;;6.75;4.30;;;7.60;99.90;;;;;;5026881;28;20127;-71
2024/01/05 00:23:50;;;;;;;11.98;5.85;;;7.70;99.90;;;;;;5025898;28;20033;-70
2024/01/05 00:26:17;;;;;;;20.75;5.90;;;7.70;99.90;;;;;;5027484;28;20525;-70
2024/01/05 00:28:45;;;;;;;13.60;5.85;;;7.80;99.90;;;;;;5027226;28;20021;-70
2024/01/05 00:31:15;;;;;;;19.33;4.97;;;7.90;99.90;;;;;;5044711;28;20037;-70
2024/01/05 00:33:42;;;;;;;9.15;4.38;;;7.90;99.90;;;;;;5040798;28;20080;-70
2024/01/05 00:36:09;;;;;;;10.20;4.07;;;7.90;99.90;;;;;;5044775;28;20029;-69
2024/01/05 00:38:35;;;;;;;7.22;3.05;;;7.90;99.90;;;;;;5026932;28;20227;-70
2024/01/05 00:41:02;;;;;;;6.15;3.13;;;7.80;99.90;;;;;;5043227;28;20306;-70
2024/01/05 00:43:28;;;;;;;7.10;4.25;;;7.80;99.90;;;;;;5008500;28;20048;-70
2024/01/05 00:45:54;;;;;;;11.18;3.30;;;7.80;99.90;;;;;;5026493;28;20024;-70
2024/01/05 00:48:20;;;;;;;6.32;4.35;;;7.90;99.90;;;;;;5026770;28;20029;-70
2024/01/05 00:50:46;;;;;;;7.20;3.50;;;7.80;99.90;;;;;;5044443;28;20075;-70
2024/01/05 00:53:12;;;;;;;14.55;3.17;;;7.80;99.90;;;;;;5024983;28;20620;-70
2024/01/05 00:55:38;;;;;;;21.52;4.07;;;7.70;99.90;;;;;;5043254;28;20084;-69
2024/01/05 00:58:04;;;;;;;10.25;3.28;;;7.80;99.90;;;;;;5026805;28;20036;-70
2024/01/05 01:00:30;;;;;;;13.30;2.15;;;7.70;99.90;;;;;;5042784;28;20310;-70
2024/01/05 01:02:57;;;;;;;15.82;4.22;;;7.80;99.90;;;;;;5041286;28;20052;-69
2024/01/05 01:05:23;;;;;;;14.30;5.63;;;7.70;99.90;;;;;;5044096;28;20025;-70
2024/01/05 01:07:49;;;;;;;8.10;3.35;;;7.60;99.90;;;;;;5026780;28;20095;-70
2024/01/05 01:10:15;;;;;;;10.45;3.40;;;7.60;99.90;;;;;;5043170;28;20048;-70
2024/01/05 01:12:41;;;;;;;4.03;2.05;;;7.50;99.90;;;;;;5032683;28;20037;-69
2024/01/05 01:15:07;;;;;;;8.85;4.07;;;7.50;99.90;;;;;;5023041;28;20018;-71
2024/01/05 01:17:34;;;;;;;5.95;2.40;;;7.40;99.90;;;;;;5022906;28;20053;-70
2024/01/05 01:20:00;;;;;;;6.47;2.63;;;7.40;99.90;;;;;;5023881;28;20334;-70
2024/01/05 01:22:26;;;;;;;7.50;3.13;;;7.30;99.90;;;;;;4997034;28;20079;-69
2024/01/05 01:24:52;;;;;;;8.55;2.83;;;7.30;99.90;;;;;;5006507;28;20314;-69
2024/01/05 01:27:17;;;;;;;8.15;3.75;;;7.30;99.90;;;;;;5006255;28;20097;-69
2024/01/05 01:29:43;;;;;;;11.05;2.22;;;7.00;99.90;;;;;;5006336;28;20299;-72
2024/01/05 01:32:09;;;;;;;9.63;3.00;;;7.20;99.90;;;;;;5014339;28;20033;-70
2024/01/05 01:34:37;;;;;;;7.95;3.55;;;7.10;99.90;;;;;;5042696;28;20052;-70
2024/01/05 01:37:03;;;;;;;9.35;2.33;;;7.10;99.90;;;;;;5043581;28;20066;-71
2024/01/05 01:39:29;;;;;;;6.85;2.20;;;7.00;99.90;;;;;;5043678;28;20100;-69
2024/01/05 01:41:55;;;;;;;12.82;4.45;;;6.90;99.90;;;;;;5041435;28;20060;-70
2024/01/05 01:44:21;;;;;;;9.55;2.58;;;6.80;99.90;;;;;;5009415;28;20309;-70
2024/01/05 01:46:49;;;;;;;9.63;3.60;;;6.80;99.90;;;;;;5042984;28;20056;-70
2024/01/05 01:49:14;;;;;;;5.68;2.13;;;6.70;99.90;;;;;;5009250;28;20045;-70
2024/01/05 01:51:40;;;;;;;7.20;4.03;;;6.70;99.90;;;;;;5007727;28;20014;-70
2024/01/05 01:54:07;;;;;;;4.10;2.90;;;6.70;99.90;;;;;;5042230;28;20105;-71
2024/01/05 01:56:34;;;;;;;11.23;3.58;;;6.90;99.90;;;;;;5043550;28;20218;-70
2024/01/05 01:59:00;;;;;;;6.97;3.10;;;6.90;99.90;;;;;;5025343;28;20037;-70
2024/01/05 02:01:27;;;;;;;6.53;4.10;;;6.90;99.90;;;;;;5042488;28;20033;-70
2024/01/05 02:03:53;;;;;;;3.03;1.98;;;7.00;99.90;;;;;;5007300;28;20032;-70
2024/01/05 02:06:20;;;;;;;4.32;2.13;;;7.10;99.90;;;;;;5041902;28;20076;-70
2024/01/05 02:08:47;;;;;;;4.25;2.17;;;7.10;99.90;;;;;;5025367;28;20017;-70
2024/01/05 02:11:14;;;;;;;12.65;3.22;;;7.20;99.90;;;;;;5025328;28;20025;-71
2024/01/05 02:13:40;;;;;;;4.28;2.00;;;7.20;99.90;;;;;;4992097;28;20048;-72
2024/01/05 02:16:06;;;;;;;7.32;3.38;;;7.20;99.90;;;;;;5038588;28;20037;-69
2024/01/05 02:18:32;;;;;;;7.03;1.65;;;7.10;99.90;;;;;;5034798;28;20116;-70
2024/01/05 02:21:00;;;;;;;11.93;4.03;;;7.10;99.90;;;;;;5042543;28;20025;-70
2024/01/05 02:23:31;;;;;;;9.82;2.13;;;7.10;99.90;;;;;;5007080;28;20107;-70
2024/01/05 02:25:58;;;;;;;6.75;2.63;;;7.00;99.90;;;;;;5042950;28;20088;-70
2024/01/05 02:28:24;;;;;;;7.95;2.20;;;7.00;99.90;;;;;;5042628;28;20070;-70
2024/01/05 02:30:54;;;;;;;5.07;2.28;;;7.00;99.90;;;;;;5025118;28;20021;-70
2024/01/05 02:33:21;;;;;;;7.68;2.80;;;7.00;99.90;;;;;;5040786;28;20045;-70
2024/01/05 02:35:47;;;;;;;6.85;2.40;;;7.00;99.90;;;;;;5025126;28;20021;-70
2024/01/05 02:38:13;;;;;;;2.55;1.67;;;7.00;99.90;;;;;;5041522;28;20041;-69
2024/01/05 02:40:38;;;;;;;5.03;2.40;;;7.00;99.90;;;;;;5025483;28;20304;-69
2024/01/05 02:43:04;;;;;;;2.55;1.80;;;6.90;99.90;;;;;;5007718;28;20021;-70
2024/01/05 02:45:31;;;;;;;4.50;1.50;;;6.80;99.90;;;;;;5034287;28;20097;-70
2024/01/05 02:47:57;;;;;;;4.40;2.95;;;6.80;99.90;;;;;;5005402;28;20041;-70
2024/01/05 02:50:23;;;;;;;3.17;2.45;;;6.70;99.90;;;;;;5005236;28;20029;-70
2024/01/05 02:52:49;;;;;;;8.73;2.63;;;6.70;99.90;;;;;;5014377;28;20132;-70
2024/01/05 02:55:14;;;;;;;6.80;2.40;;;6.70;99.90;;;;;;5042259;28;20116;-70
2024/01/05 02:57:43;;;;;;;4.65;2.80;;;6.70;99.90;;;;;;5024763;28;20079;-70
2024/01/05 03:00:09;;;;;;;10.88;3.25;;;6.80;99.90;;;;;;5042216;28;20085;-69
2024/01/05 03:02:35;;;;;;;6.35;2.50;;;6.90;99.90;;;;;;5007196;28;20036;-71
2024/01/05 03:05:03;;;;;;;4.05;1.85;;;6.90;99.90;;;;;;5025502;28;20033;-71
2024/01/05 03:07:29;;;;;;;5.97;2.80;;;6.90;99.90;;;;;;5046783;28;20055;-70
2024/01/05 03:09:55;;;;;;;5.47;3.80;;;6.80;99.90;;;;;;5046314;28;20025;-70
2024/01/05 03:12:21;;;;;;;2.80;2.28;;;6.80;99.90;;;;;;5044871;28;20089;-70
2024/01/05 03:14:47;;;;;;;7.35;2.53;;;6.80;99.90;;;;;;5045021;28;20556;-70
2024/01/05 03:17:13;;;;;;;4.68;1.95;;;6.90;99.90;;;;;;5046427;28;20033;-69
2024/01/05 03:19:39;;;;;;;3.08;2.72;;;6.90;99.90;;;;;;5028753;28;20045;-70
2024/01/05 03:22:04;;;;;;;2.78;1.88;;;7.00;99.90;;;;;;5011356;28;20025;-70
2024/01/05 03:24:30;;;;;;;3.50;1.60;;;7.10;99.90;;;;;;5046095;28;20049;-70
2024/01/05 03:26:56;;;;;;;6.65;2.08;;;7.30;99.90;;;;;;4979803;28;20232;-69
2024/01/05 03:29:22;;;;;;;2.55;1.52;;;7.30;99.90;;;;;;5046055;28;20310;-70
2024/01/05 03:31:47;;;;;;;9.98;3.60;;;7.30;99.90;;;;;;5026418;28;20037;-70
2024/01/05 03:34:14;;;;;;;5.75;1.98;;;7.40;99.90;;;;;;5028108;28;20096;-71
2024/01/05 03:36:41;;;;;;;2.95;1.75;;;7.40;99.90;;;;;;5045171;28;20336;-70
2024/01/05 03:39:07;;;;;;;7.57;2.33;;;7.40;99.90;;;;;;5046296;28;20029;-70
2024/01/05 03:41:33;;;;;;;3.13;1.55;;;7.40;99.90;;;;;;5010565;28;20029;-71
2024/01/05 03:43:59;;;;;;;4.40;2.28;;;7.40;99.90;;;;;;5044625;28;20017;-70
2024/01/05 03:46:26;;;;;;;2.05;1.45;;;7.50;99.90;;;;;;5044250;28;20028;-70
2024/01/05 03:48:52;;;;;;;2.78;1.17;;;7.40;99.90;;;;;;5045678;28;20040;-71
2024/01/05 03:51:18;;;;;;;4.05;1.58;;;7.40;99.90;;;;;;5045722;28;20025;-69
2024/01/05 03:53:44;;;;;;;4.88;1.90;;;7.30;99.90;;;;;;5010153;28;20622;-70
2024/01/05 03:56:10;;;;;;;7.47;1.83;;;7.40;99.90;;;;;;5045806;28;20311;-70
2024/01/05 03:58:36;;;;;;;6.47;1.42;;;7.40;99.90;;;;;;5045252;28;20067;-69
2024/01/05 04:01:02;;;;;;;9.30;3.47;;;7.40;99.90;;;;;;5028003;28;20038;-69
2024/01/05 04:03:28;;;;;;;2.38;2.05;;;7.40;99.90;;;;;;5009982;28;20025;-70
2024/01/05 04:05:54;;;;;;;2.42;1.60;;;7.50;99.90;;;;;;5045550;28;20049;-69
2024/01/05 04:08:20;;;;;;;9.00;2.33;;;7.40;99.90;;;;;;5045526;28;20029;-70
2024/01/05 04:10:46;;;;;;;3.85;2.47;;;7.40;99.90;;;;;;5045047;28;20025;-70
2024/01/05 04:13:12;;;;;;;10.43;2.28;;;7.40;99.90;;;;;;5043678;28;20056;-71
2024/01/05 04:15:39;;;;;;;5.57;1.80;;;7.40;99.90;;;;;;5044256;28;20036;-70
2024/01/05 04:18:05;;;;;;;2.80;1.92;;;7.50;99.90;;;;;;5026296;28;20018;-70
2024/01/05 04:20:31;;;;;;;5.63;2.65;;;7.50;99.90;;;;;;5027512;28;20033;-70
2024/01/05 04:22:59;;;;;;;6.63;1.20;;;7.50;99.90;;;;;;5037486;28;20025;-70
2024/01/05 04:25:25;;;;;;;3.22;2.53;;;7.40;99.90;;;;;;5044063;28;20310;-70
2024/01/05 04:27:52;;;;;;;4.78;1.30;;;7.50;99.90;;;;;;5027019;28;20022;-70
2024/01/05 04:30:20;;;;;;;1.45;1.35;;;7.50;99.90;;;;;;5027068;28;20048;-70
2024/01/05 04:32:46;;;;;;;2.45;1.67;;;7.60;99.90;;;;;;5043279;28;20021;-69
2024/01/05 04:35:12;;;;;;;4.22;1.15;;;7.60;99.90;;;;;;5044729;28;20029;-70
2024/01/05 04:37:38;;;;;;;4.20;2.38;;;7.70;99.90;;;;;;5043739;28;20048;-69
2024/01/05 04:40:06;;;;;;;10.65;1.42;;;7.70;99.90;;;;;;5010429;28;20033;-69
2024/01/05 04:42:32;;;;;;;6.20;1.33;;;7.70;99.90;;;;;;5009789;28;20017;-71
2024/01/05 04:44:58;;;;;;;1.13;0.98;;;7.80;99.90;;;;;;5044957;28;20255;-69
2024/01/05 04:47:24;;;;;;;6.78;1.85;;;7.90;99.90;;;;;;5029227;28;20032;-70
2024/01/05 04:49:50;;;;;;;4.70;1.92;;;7.90;99.90;;;;;;5024702;28;20030;-70
2024/01/05 04:52:16;;;;;;;5.97;2.50;;;8.00;99.90;;;;;;5008567;28;20063;-70
2024/01/05 04:54:42;;;;;;;2.58;1.52;;;8.10;99.90;;;;;;5044603;28;20036;-69
2024/01/05 04:57:07;;;;;;;4.28;1.52;;;8.10;99.90;;;;;;5044221;28;20030;-70
2024/01/05 04:59:34;;;;;;;1.92;1.52;;;8.10;99.90;;;;;;5044185;28;20064;-70
2024/01/05 05:01:59;;;;;;;2.20;1.50;;;8.10;99.90;;;;;;5025344;28;20048;-69
2024/01/05 05:04:26;;;;;;;4.68;1.38;;;8.10;99.90;;;;;;5027724;28;20109;-71
2024/01/05 05:06:51;;;;;;;8.07;3.40;;;8.20;99.90;;;;;;5023182;28;20295;-72
2024/01/05 05:09:17;;;;;;;4.65;2.13;;;8.20;99.90;;;;;;5024131;28;20033;-71
2024/01/05 05:11:43;;;;;;;6.57;1.92;;;8.20;99.90;;;;;;5036842;28;20468;-70
2024/01/05 05:14:09;;;;;;;7.90;1.33;;;8.30;99.90;;;;;;5024950;28;20033;-70
2024/01/05 05:16:35;;;;;;;1.70;1.60;;;8.20;99.90;;;;;;5023267;28;20056;-71
2024/01/05 05:19:01;;;;;;;1.38;1.27;;;8.40;99.90;;;;;;5023684;28;20285;-70
2024/01/05 05:21:28;;;;;;;2.70;2.45;;;8.50;99.90;;;;;;5018274;28;20055;-69
2024/01/05 05:23:54;;;;;;;9.32;2.08;;;8.50;99.90;;;;;;5025558;28;20033;-70
2024/01/05 05:26:20;;;;;;;4.88;1.20;;;8.60;99.90;;;;;;5026048;28;20210;-69
2024/01/05 05:28:45;;;;;;;2.63;1.42;;;8.60;99.90;;;;;;5042656;28;20022;-70
2024/01/05 05:31:12;;;;;;;1.23;1.08;;;8.60;99.90;;;;;;5017310;28;20033;-71
2024/01/05 05:33:38;;;;;;;3.00;1.23;;;8.70;99.90;;;;;;5039733;28;20357;-69
2024/01/05 05:36:04;;;;;;;1.67;0.85;;;8.70;99.90;;;;;;5025711;28;20017;-69
2024/01/05 05:38:30;;;;;;;4.55;2.92;;;8.70;99.90;;;;;;5043564;28;20048;-70
2024/01/05 05:40:55;;;;;;;2.38;0.75;;;8.80;99.90;;;;;;5043232;28;20210;-69
2024/01/05 05:43:21;;;;;;;2.72;1.65;;;8.80;99.90;;;;;;5019210;28;20033;-70
2024/01/05 05:45:47;;;;;;;3.75;1.35;;;8.80;99.90;;;;;;5025924;28;20329;-70
2024/01/05 05:48:13;;;;;;;5.32;2.40;;;8.80;99.90;;;;;;5043533;28;20025;-71
2024/01/05 05:50:39;;;;;;;3.20;1.23;;;8.70;99.90;;;;;;5025853;28;20048;-70
2024/01/05 05:53:05;;;;;;;1.85;1.17;;;8.80;99.90;;;;;;5020256;28;20025;-70
2024/01/05 05:55:31;;;;;;;5.35;1.20;;;8.80;99.90;;;;;;5025645;28;20052;-70
2024/01/05 05:57:57;;;;;;;1.88;0.80;;;8.90;99.90;;;;;;5025902;28;20370;-71
2024/01/05 06:00:25;;;;;;;3.05;1.00;;;8.90;99.90;;;;;;5042882;28;20306;-70
2024/01/05 06:02:50;;;;;;;0.82;0.20;;;8.90;99.90;;;;;;5016250;28;20014;-70
2024/01/05 06:05:16;;;;;;;1.08;0.65;;;9.00;99.90;;;;;;5021807;28;20095;-70
2024/01/05 06:07:42;;;;;;;5.13;0.75;;;8.90;99.90;;;;;;5042421;28;20030;-70
2024/01/05 06:10:08;;;;;;;0.28;0.28;;;8.90;99.90;;;;;;5027118;28;20022;-72
2024/01/05 06:12:34;;;;;;;3.25;0.38;;;8.90;99.90;;;;;;5031110;28;20013;-70
2024/01/05 06:15:00;;;;;;;0.65;0.20;;;8.90;99.90;;;;;;5008705;28;20033;-71
2024/01/05 06:17:26;;;;;;;1.42;1.33;;;8.90;99.90;;;;;;5043021;28;20022;-71
2024/01/05 06:19:51;;;;;;;1.83;0.50;;;8.80;99.90;;;;;;5042745;28;20037;-71
2024/01/05 06:22:17;;;;;;;0.73;0.70;;;8.80;99.90;;;;;;5022444;28;20025;-70
2024/01/05 06:24:46;;;;;;;1.55;0.32;;;8.80;99.90;;;;;;5016865;28;20029;-74
2024/01/05 06:27:12;;;;;;;0.65;0.50;;;8.80;99.90;;;;;;5022931;28;20021;-71
2024/01/05 06:29:38;;;;;;;5.68;0.65;;;8.90;99.90;;;;;;4998066;28;20098;-70
2024/01/05 06:32:04;;;;;;;2.00;0.50;;;8.90;99.90;;;;;;5037053;28;20029;-70
2024/01/05 06:34:31;;;;;;;2.08;0.50;;;8.80;99.90;;;;;;5040861;28;20021;-72
2024/01/05 06:36:57;;;;;;;1.30;0.45;;;8.80;99.90;;;;;;5038103;28;20033;-71
2024/01/05 06:39:23;;;;;;;0.60;0.20;;;8.70;99.90;;;;;;5014183;28;20044;-72
2024/01/05 06:41:49;;;;;;;0.40;0.40;;;8.70;99.90;;;;;;5040703;28;20302;-70
2024/01/05 06:44:15;;;;;;;2.50;0.32;;;8.70;99.90;;;;;;5042966;28;20033;-71
2024/01/05 06:46:40;;;;;;;2.67;2.42;;;8.60;99.90;;;;;;5042349;28;20049;-70
2024/01/05 06:49:06;;;;;;;3.53;2.08;;;8.50;99.90;;;;;;5008399;28;20036;-70
2024/01/05 06:51:39;;;;;;;0.45;0.45;;;8.60;99.90;;;;;;5003777;28;20342;-72
2024/01/05 06:54:05;;;;;;;0.82;0.82;;;8.30;99.90;;;;;;5004838;28;20033;-73
2024/01/05 06:56:34;;;;;;;0.30;0.30;;;8.50;99.90;;;;;;5030142;28;20029;-71
2024/01/05 06:59:01;;;;;;;9.85;0.65;;;8.50;99.90;;;;;;5024579;28;20053;-70
2024/01/05 07:01:26;;;;;;;0.20;0.20;;;8.40;99.90;;;;;;5042503;28;20045;-70
2024/01/05 07:03:52;;;;;;;0.30;0.30;;;8.40;99.90;;;;;;5023340;28;20072;-71
2024/01/05 07:06:18;;;;;;;0.47;0.45;;;8.40;99.90;;;;;;5042008;28;20571;-71
2024/01/05 07:08:44;;;;;;;1.23;0.50;;;8.40;99.90;;;;;;5021252;28;20026;-71
2024/01/05 07:11:22;;;;;;;2.03;0.60;;;8.40;99.90;;;;;;5039589;28;20017;-70
2024/01/05 07:13:48;;;;;;;1.40;0.90;;;8.40;99.90;;;;;;5041000;28;20257;-70
2024/01/05 07:16:18;;;;;;;0.38;0.30;;;8.30;99.90;;;;;;5042458;28;20060;-72
2024/01/05 07:18:46;;;;;;;0.45;0.45;;;8.30;99.90;;;;;;5007839;28;20064;-71
2024/01/05 07:21:12;;;;;;;0.32;0.32;;;8.30;99.90;;;;;;5024550;28;20012;-73
2024/01/05 07:23:38;;;;;;;0.40;0.40;;;8.20;99.90;;;;;;5023182;28;20430;-70
2024/01/05 07:26:04;;;;;;;0.40;0.38;;;8.20;99.90;;;;;;5008313;28;20022;-72
2024/01/05 07:28:30;;;;;;;0.90;0.30;;;;;;;;;;5042612;28;20018;-69
2024/01/05 07:30:56;;;;;;;1.65;0.38;;;8.20;99.90;;;;;;5038031;28;20022;-69
2024/01/05 07:33:21;;;;;;;0.30;0.30;;;8.20;99.90;;;;;;5039382;28;20076;-70
2024/01/05 07:35:48;;;;;;;2.72;0.40;;;8.20;99.90;;;;;;5023323;28;20052;-70
2024/01/05 07:38:14;;;;;;;0.65;0.55;;;8.20;99.90;;;;;;5021236;28;20037;-70
2024/01/05 07:40:40;;;;;;;0.22;0.22;;;8.10;99.90;;;;;;5005139;28;20037;-70
2024/01/05 07:43:05;;;;;;;2.33;0.90;;;8.10;99.90;;;;;;5037369;28;20028;-74
2024/01/05 07:45:31;;;;;;;0.50;0.50;;;8.10;99.90;;;;;;5033033;28;20049;-72
2024/01/05 07:47:57;;;;;;;0.50;0.50;;;8.10;99.90;;;;;;5038695;28;20025;-71
2024/01/05 07:50:24;;;;;;;0.40;0.40;;;8.00;99.90;;;;;;5022200;28;20027;-72
2024/01/05 07:52:51;;;;;;;0.57;0.57;;;8.10;99.90;;;;;;5005993;28;20021;-71
2024/01/05 07:55:19;;;;;;;0.50;0.47;;;8.10;99.90;;;;;;5010245;28;20021;-72
2024/01/05 07:57:45;;;;;;;0.35;0.35;;;8.00;99.90;;;;;;5026972;28;20010;-71
2024/01/05 08:00:11;;;;;;;0.75;0.40;;;7.90;99.90;;;;;;5025179;28;20697;-71
2024/01/05 08:02:37;;;;;;;0.20;0.20;;;7.80;99.90;;;;;;5040718;28;20029;-71
2024/01/05 08:05:04;;;;;;;0.60;0.38;;;7.60;99.90;;;;;;5024054;28;20085;-73
2024/01/05 08:07:30;;;;;;;0.15;0.15;;;7.60;99.90;;;;;;5027421;28;20032;-74
2024/01/05 08:09:56;;;;;;;0.77;0.68;;;7.60;99.90;;;;;;5027357;28;20014;-73
2024/01/05 08:12:22;;;;;;;0.60;0.47;;;7.70;99.90;;;;;;5043258;28;20075;-73
2024/01/05 08:14:47;;;;;;;0.40;0.40;;;7.60;99.90;;;;;;5043709;28;20298;-74
2024/01/05 08:17:14;;;;;;;0.88;0.22;;;7.60;99.90;;;;;;5043642;28;20029;-74
2024/01/05 08:19:40;;;;;;;0.60;0.60;;;7.70;99.90;;;;;;5043024;28;20334;-74
2024/01/05 08:22:05;;;;;;;0.75;0.30;;;7.70;99.90;;;;;;5039703;28;20053;-73
2024/01/05 08:24:32;;;;;;;3.15;0.70;;;7.60;99.90;;;;;;5044228;28;20052;-74
2024/01/05 08:26:58;;;;;;;2.53;0.98;;;7.60;99.90;;;;;;5027100;28;20033;-73
2024/01/05 08:29:23;;;;;;;4.28;0.35;;;7.60;99.90;;;;;;5026621;28;20014;-72
2024/01/05 08:31:49;;;;;;;0.35;0.28;;;7.50;99.90;;;;;;5022060;28;20045;-73
2024/01/05 08:34:16;;;;;;;0.55;0.40;;;7.40;99.90;;;;;;5021152;28;20021;-73
2024/01/05 08:36:42;;;;;;;0.60;0.52;;;7.60;99.90;;;;;;5023967;28;20028;-73
2024/01/05 08:39:08;;;;;;;0.60;0.60;;;7.40;99.90;;;;;;5042879;28;20088;-73
2024/01/05 08:41:34;;;;;;;0.45;0.45;;;7.40;99.90;;;;;;5008229;28;20057;-72
2024/01/05 08:44:00;;;;;;;0.85;0.85;;;7.40;99.90;;;;;;5025224;28;20053;-73
2024/01/05 08:46:29;;;;;;;1.48;0.93;;;7.40;99.90;;;;;;5017711;28;20092;-75
2024/01/05 08:48:54;;;;;;;1.38;0.38;;;7.30;99.90;;;;;;5023158;28;20049;-72
2024/01/05 08:51:21;;;;;;;0.80;0.80;;;7.20;99.90;;;;;;5020180;28;20103;-71
2024/01/05 08:53:46;;;;;;;0.47;0.47;;;7.10;99.90;;;;;;5038675;28;20040;-71
2024/01/05 08:56:13;;;;;;;0.50;0.50;;;6.50;99.90;;;;;;5011842;28;20038;-72
2024/01/05 08:58:39;;;;;;;0.98;0.82;;;6.90;99.90;;;;;;5025940;28;20215;-75
2024/01/05 09:01:04;;;;;;;2.90;1.05;;;6.80;99.90;;;;;;5042826;28;20233;-71
2024/01/05 09:03:30;;;;;;;1.50;1.20;;;6.80;99.90;;;;;;5004270;28;20056;-72
2024/01/05 09:05:56;;;;;;;1.27;0.80;;;6.40;99.90;;;;;;5037621;28;20024;-71
2024/01/05 09:08:22;;;;;;;5.38;1.05;;;6.60;99.90;;;;;;5009023;28;20214;-71
2024/01/05 09:10:48;;;;;;;5.00;1.25;;;6.60;99.90;;;;;;5009993;28;20023;-71
2024/01/05 09:13:14;;;;;;;2.35;1.25;;;6.60;99.90;;;;;;5041233;28;20021;-70
2024/01/05 09:15:40;;;;;;;2.45;2.28;;;;;;;;;;5042416;28;20230;-73
2024/01/05 09:18:06;;;;;;;2.00;0.80;;;6.70;99.90;;;;;;5024862;28;20021;-70
2024/01/05 09:20:31;;;;;;;2.25;1.75;;;6.60;99.90;;;;;;5025205;28;20344;-69
2024/01/05 09:22:57;;;;;;;2.53;1.42;;;6.50;99.90;;;;;;5038816;28;20017;-70
2024/01/05 09:25:23;;;;;;;4.15;3.80;;;6.70;99.90;;;;;;5008742;28;20029;-74
2024/01/05 09:27:49;;;;;;;3.15;1.48;;;6.60;99.90;;;;;;5041744;28;20194;-70
2024/01/05 09:30:15;;;;;;;2.67;0.93;;;6.70;99.90;;;;;;5025728;28;20033;-70
2024/01/05 09:32:41;;;;;;;2.92;0.90;;;6.60;99.90;;;;;;5023080;28;20028;-69
2024/01/05 09:35:08;;;;;;;5.20;1.15;;;6.60;99.90;;;;;;5008277;28;20041;-70
2024/01/05 09:37:35;;;;;;;5.05;1.55;;;6.70;99.90;;;;;;5041028;28;20310;-69
2024/01/05 09:40:02;;;;;;;3.83;0.90;;;6.70;99.90;;;;;;5042349;28;20257;-69
2024/01/05 09:42:28;;;;;;;1.52;0.88;;;6.80;99.90;;;;;;5039699;28;20014;-71
2024/01/05 09:44:55;;;;;;;1.73;1.10;;;6.80;99.90;;;;;;5041062;28;20075;-70
2024/01/05 09:47:21;;;;;;;1.35;1.05;;;6.80;99.90;;;;;;5040048;28;20364;-71
2024/01/05 09:49:51;;;;;;;1.20;1.10;;;6.80;99.90;;;;;;5040169;28;20079;-70
2024/01/05 09:52:22;;;;;;;2.97;1.38;;;6.90;99.90;;;;;;5022317;28;20059;-69
2024/01/05 09:54:50;;;;;;;1.02;1.02;;;7.00;99.90;;;;;;5023872;28;20052;-70
2024/01/05 09:57:20;;;;;;;0.70;0.70;;;7.00;99.90;;;;;;5039823;28;20022;-70
2024/01/05 09:59:47;;;;;;;;;;;7.00;99.90;;;;;;5020948;28;20060;-71
2024/01/05 10:02:21;;;;;;;2.38;1.98;;;7.00;99.90;;;;;;5022278;28;19932;-72
2024/01/05 10:04:47;;;;;;;1.40;1.13;;;7.00;99.90;;;;;;5041104;28;20021;-70
2024/01/05 10:07:13;;;;;;;2.00;0.73;;;7.10;99.90;;;;;;5040819;28;20188;-70
2024/01/05 10:09:49;;;;;;;2.13;0.65;;;7.10;99.90;;;;;;5041323;28;20076;-71
2024/01/05 10:12:15;;;;;;;1.17;1.13;;;7.10;99.90;;;;;;5039424;28;20080;-71
2024/01/05 10:14:41;;;;;;;1.65;1.08;;;7.10;99.90;;;;;;5038894;28;20017;-72
2024/01/05 10:17:08;;;;;;;1.95;1.00;;;7.20;99.90;;;;;;5040544;28;20029;-72
2024/01/05 10:19:35;;;;;;;1.35;0.95;;;7.10;99.90;;;;;;5041122;28;20053;-72
2024/01/05 10:22:09;;;;;;;3.00;1.15;;;7.20;99.90;;;;;;5022634;28;20307;-71
2024/01/05 10:24:35;;;;;;;1.48;1.38;;;7.30;99.90;;;;;;5024541;28;20044;-71
2024/01/05 10:27:04;;;;;;;2.90;0.90;;;7.40;99.90;;;;;;5007953;28;20220;-71
2024/01/05 10:29:32;;;;;;;3.20;1.77;;;7.40;99.90;;;;;;5041992;28;20029;-71
2024/01/05 10:32:19;;;;;;;1.25;1.15;;;7.50;99.90;;;;;;5038510;28;20017;-71
2024/01/05 10:34:47;;;;;;;0.98;0.90;;;7.60;99.90;;;;;;5039622;28;20021;-72
2024/01/05 10:37:14;;;;;;;1.58;1.35;;;7.50;99.90;;;;;;5040042;28;20060;-72
2024/01/05 10:39:46;;;;;;;0.98;0.98;;;7.50;99.90;;;;;;5024103;28;20045;-71
2024/01/05 10:42:22;;;;;;;6.60;0.70;;;7.50;99.90;;;;;;5039552;28;20049;-72
2024/01/05 10:44:51;;;;;;;1.25;1.15;;;7.40;99.90;;;;;;5009387;28;20025;-71
2024/01/05 10:47:21;;;;;;;1.48;1.35;;;7.30;99.90;;;;;;5037127;28;20041;-71
2024/01/05 10:49:50;;;;;;;3.60;1.83;;;7.30;99.90;;;;;;5040531;28;20029;-71
2024/01/05 10:52:20;;;;;;;8.57;1.98;;;7.20;99.90;;;;;;5022822;28;20072;-71
2024/01/05 10:54:48;;;;;;;1.63;1.10;;;7.10;99.90;;;;;;5040687;28;20076;-71
2024/01/05 10:57:15;;;;;;;2.85;1.73;;;7.10;99.90;;;;;;5032048;28;20017;-72
2024/01/05 10:59:49;;;;;;;1.40;1.30;;;7.10;99.90;;;;;;5039248;28;20148;-71
2024/01/05 11:02:42;;;;;;;1.15;1.05;;;7.20;99.90;;;;;;5005478;28;20273;-72
2024/01/05 11:05:13;;;;;;;7.65;1.77;;;7.20;99.90;;;;;;5019562;28;20067;-73
2024/01/05 11:07:41;;;;;;;1.38;1.30;;;7.30;99.90;;;;;;5022305;28;20051;-72
2024/01/05 11:10:13;;;;;;;2.47;2.25;;;7.30;99.90;;;;;;5037485;28;20303;-72
2024/01/05 11:13:11;;;;;;;5.32;2.20;;;7.30;99.90;;;;;;5022346;28;20053;-72
2024/01/05 11:15:53;;;;;;;4.15;1.55;;;7.40;99.90;;;;;;5037545;28;20057;-71
2024/01/05 11:18:31;;;;;;;1.73;1.05;;;7.40;99.90;;;;;;5020695;28;20222;-71
2024/01/05 11:21:24;;;;;;;1.92;1.65;;;7.40;99.90;;;;;;5035852;28;20244;-71
2024/01/05 11:23:53;;;;;;;1.20;1.10;;;7.40;99.90;;;;;;5021363;28;20332;-71
2024/01/05 11:26:35;;;;;;;1.85;1.00;;;7.30;99.90;;;;;;5043066;28;20025;-71
2024/01/05 11:29:04;;;;;;;2.53;1.40;;;7.30;99.90;;;;;;5011710;28;20039;-71
2024/01/05 11:31:45;;;;;;;1.30;1.20;;;7.20;99.90;;;;;;4995628;28;20245;-71
2024/01/05 11:34:30;;;;;;;7.97;1.52;;;7.10;99.90;;;;;;5045000;28;20104;-72
2024/01/05 11:36:57;;;;;;;1.38;1.15;;;7.10;99.90;;;;;;5044241;28;20029;-70
2024/01/05 11:39:49;;;;;;;13.70;1.58;;;7.10;99.90;;;;;;5044249;28;20087;-72
2024/01/05 11:42:33;;;;;;;1.25;1.15;;;7.00;99.90;;;;;;5025026;28;20265;-71
2024/01/05 11:45:02;;;;;;;2.70;2.15;;;7.00;99.90;;;;;;5011323;28;20067;-71
2024/01/05 11:47:41;;;;;;;1.65;1.55;;;7.00;99.90;;;;;;5027566;28;20075;-72
2024/01/05 11:50:28;;;;;;;4.95;2.38;;;7.00;99.90;;;;;;5043978;28;20097;-68
2024/01/05 11:53:16;;;;;;;2.80;1.77;;;7.00;99.90;;;;;;5010035;28;20033;-70
2024/01/05 11:55:49;;;;;;;2.00;1.42;;;6.80;99.90;;;;;;5045665;28;20037;-71
2024/01/05 11:58:17;;;;;;;6.80;3.42;;;7.00;99.90;;;;;;5027709;28;20030;-69
2024/01/05 12:00:46;;;;;;;2.47;1.50;;;6.90;99.90;;;;;;5027173;28;20013;-70
2024/01/05 12:03:12;;;;;;;3.33;1.45;;;7.00;99.90;;;;;;5026119;28;20100;-69
2024/01/05 12:05:38;;;;;;;2.00;1.88;;;7.00;99.90;;;;;;5009030;28;20048;-71
2024/01/05 12:08:14;;;;;;;8.43;2.25;;;7.00;99.90;;;;;;5031449;28;20308;-70
2024/01/05 12:10:40;;;;;;;3.50;2.30;;;7.10;99.90;;;;;;5022840;28;20040;-69
2024/01/05 12:13:07;;;;;;;6.22;2.30;;;7.10;99.90;;;;;;5035963;28;20377;-69
2024/01/05 12:15:33;;;;;;;7.25;4.53;;;7.10;99.90;;;;;;5037816;28;20341;-70
2024/01/05 12:18:09;;;;;;;13.55;9.88;;;7.10;99.90;;;;;;5025329;28;20053;-69
2024/01/05 12:20:35;;;;;;;20.25;12.82;;;7.10;99.90;;;;;;5025474;28;20319;-69
2024/01/05 12:23:01;;;;;;;6.35;3.22;;;7.10;99.90;;;;;;5042621;28;20029;-70
2024/01/05 12:25:27;;;;;;;1.90;1.80;;;7.20;99.90;;;;;;5042292;28;20048;-69
2024/01/05 12:27:53;;;;;;;5.80;2.03;;;7.20;99.90;;;;;;5022903;28;20069;-70
2024/01/05 12:30:23;;;;;;;2.45;1.58;;;7.20;99.90;;;;;;5020209;28;20192;-71
2024/01/05 12:32:49;;;;;;;3.83;2.40;;;7.20;99.90;;;;;;5034696;28;20037;-69
2024/01/05 12:35:16;;;;;;;2.15;1.85;;;7.20;99.90;;;;;;5026667;28;20028;-69
2024/01/05 12:37:54;;;;;;;1.92;1.75;;;7.20;99.90;;;;;;5043638;28;20025;-69
2024/01/05 12:40:24;;;;;;;4.15;2.40;;;7.50;99.90;;;;;;5044102;28;20057;-69
2024/01/05 12:42:53;;;;;;;7.28;1.58;;;7.10;99.90;;;;;;5025324;28;20037;-68
2024/01/05 12:45:22;;;;;;;7.57;4.82;;;7.10;99.90;;;;;;5009933;28;20067;-70
2024/01/05 12:47:51;;;;;;;3.50;2.58;;;7.10;99.90;;;;;;5006545;28;20030;-69
2024/01/05 12:50:28;;;;;;;4.10;3.07;;;7.10;99.90;;;;;;5014288;28;20291;-70
2024/01/05 12:52:54;;;;;;;5.30;3.25;;;7.00;99.90;;;;;;5024868;28;20021;-71
2024/01/05 12:55:31;;;;;;;4.53;2.38;;;7.00;99.90;;;;;;5016908;28;20025;-70
2024/01/05 12:58:01;;;;;;;3.20;1.98;;;7.00;99.90;;;;;;5041395;28;20097;-70
2024/01/05 13:00:27;;;;;;;2.95;2.40;;;7.00;99.90;;;;;;5026400;28;20374;-70